createdAt,value
2023-03-06T00:00:37.047Z,100961.91
2023-03-06T00:03:07.702Z,100960.50
2023-03-06T00:05:37.738Z,100960.41
2023-03-06T00:08:07.843Z,100952.16
2023-03-06T00:10:37.493Z,100964.28
2023-03-06T00:13:09.713Z,100956.06
2023-03-06T00:15:39.175Z,100952.56
2023-03-06T00:18:10.998Z,100946.47
2023-03-06T00:20:41.538Z,100944.09
2023-03-06T00:23:11.054Z,100945.84
2023-03-06T00:25:43.841Z,100940.28
2023-03-06T00:28:16.123Z,100937.63
2023-03-06T00:30:46.255Z,100934.44
2023-03-06T00:33:17.971Z,100924.22
2023-03-06T00:35:46.745Z,100922.81
2023-03-06T00:38:16.062Z,100912.06
2023-03-06T00:40:45.112Z,100910.16
2023-03-06T00:43:14.613Z,100905.00
2023-03-06T00:45:43.767Z,100907.25
2023-03-06T00:48:13.542Z,100905.72
2023-03-06T00:50:43.664Z,100903.47
2023-03-06T00:53:13.486Z,100905.63
2023-03-06T00:55:45.940Z,100901.69
2023-03-06T00:58:15.059Z,100898.16
2023-03-06T01:00:44.278Z,100900.31
2023-03-06T01:03:13.648Z,100899.34
2023-03-06T01:05:47.006Z,100899.25
2023-03-06T01:08:22.648Z,100896.94
2023-03-06T01:10:51.572Z,100904.63
2023-03-06T01:13:20.996Z,100897.16
2023-03-06T01:15:50.776Z,100905.63
2023-03-06T01:18:19.462Z,100894.97
2023-03-06T01:20:50.420Z,100891.53
2023-03-06T01:23:25.790Z,100892.75
2023-03-06T01:25:54.521Z,100895.13
2023-03-06T01:28:24.880Z,100878.81
2023-03-06T01:30:53.641Z,100876.13
2023-03-06T01:33:22.335Z,100879.34
2023-03-06T01:35:52.870Z,100868.75
2023-03-06T01:38:21.236Z,100874.81
2023-03-06T01:40:52.398Z,100872.97
2023-03-06T01:43:31.006Z,100864.69
2023-03-06T01:46:35.152Z,100866.22
2023-03-06T01:49:08.692Z,100866.91
2023-03-06T01:51:41.292Z,100866.41
2023-03-06T01:54:14.263Z,100862.56
2023-03-06T01:56:45.000Z,100854.50
2023-03-06T01:59:14.915Z,100854.41
2023-03-06T02:01:44.120Z,100851.81
2023-03-06T02:04:13.452Z,100848.38
2023-03-06T02:06:45.251Z,100843.56
2023-03-06T02:09:14.719Z,100842.00
2023-03-06T02:11:44.637Z,100842.66
2023-03-06T02:14:14.397Z,100835.16
2023-03-06T02:16:44.447Z,100833.69
2023-03-06T02:19:23.737Z,100834.53
2023-03-06T02:21:54.174Z,100823.91
2023-03-06T02:24:32.494Z,100832.44
2023-03-06T02:27:04.476Z,100832.06
2023-03-06T02:29:33.455Z,100830.75
2023-03-06T02:32:02.946Z,100824.25
2023-03-06T02:34:52.700Z,100827.34
2023-03-06T02:37:23.963Z,100812.94
2023-03-06T02:40:02.089Z,100818.75
2023-03-06T02:42:33.226Z,100799.56
2023-03-06T02:45:05.671Z,100797.59
2023-03-06T02:47:35.238Z,100801.50
2023-03-06T02:50:04.995Z,100797.34
2023-03-06T02:52:37.604Z,100794.28
2023-03-06T02:55:07.483Z,100794.22
2023-03-06T02:57:38.064Z,100794.31
2023-03-06T03:00:08.761Z,100788.41
2023-03-06T03:02:37.666Z,100785.03
2023-03-06T03:05:09.012Z,100778.00
2023-03-06T03:07:49.745Z,100767.22
2023-03-06T03:10:18.963Z,100772.16
2023-03-06T03:12:49.671Z,100767.03
2023-03-06T03:15:19.073Z,100755.09
2023-03-06T03:17:50.988Z,100758.59
2023-03-06T03:20:23.411Z,100759.47
2023-03-06T03:22:53.390Z,100752.16
2023-03-06T03:25:24.148Z,100752.19
2023-03-06T03:27:54.916Z,100751.78
2023-03-06T03:30:24.669Z,100740.38
2023-03-06T03:32:53.447Z,100753.16
2023-03-06T03:35:23.959Z,100741.03
2023-03-06T03:37:55.126Z,100729.00
2023-03-06T03:40:24.785Z,100726.06
2023-03-06T03:42:55.506Z,100736.59
2023-03-06T03:45:24.589Z,100735.09
2023-03-06T03:47:55.468Z,100728.19
2023-03-06T03:50:26.884Z,100735.38
2023-03-06T03:52:57.085Z,100719.88
2023-03-06T03:55:26.837Z,100734.94
2023-03-06T03:57:57.342Z,100717.66
2023-03-06T04:00:30.126Z,100740.53
2023-03-06T04:02:59.460Z,100735.94
2023-03-06T04:05:28.831Z,100730.16
2023-03-06T04:07:59.540Z,100738.81
2023-03-06T04:10:28.204Z,100734.84
2023-03-06T04:12:59.771Z,100740.94
2023-03-06T04:15:28.391Z,100731.28
2023-03-06T04:18:01.067Z,100739.69
2023-03-06T04:20:31.689Z,100730.88
2023-03-06T04:23:01.070Z,100731.56
2023-03-06T04:25:29.627Z,100729.41
2023-03-06T04:28:02.756Z,100730.72
2023-03-06T04:30:31.839Z,100731.28
2023-03-06T04:33:01.466Z,100718.97
2023-03-06T04:35:31.117Z,100724.44
2023-03-06T04:38:03.016Z,100718.03
2023-03-06T04:40:34.047Z,100713.69
2023-03-06T04:43:06.325Z,100698.91
2023-03-06T04:45:35.782Z,100707.28
2023-03-06T04:48:04.985Z,100706.47
2023-03-06T04:50:38.238Z,100706.22
2023-03-06T04:53:08.675Z,100693.91
2023-03-06T04:55:39.382Z,100697.59
2023-03-06T04:58:10.027Z,100693.22
2023-03-06T05:00:38.956Z,100691.34
2023-03-06T05:03:10.451Z,100699.56
2023-03-06T05:05:40.869Z,100697.75
2023-03-06T05:08:10.071Z,100701.16
2023-03-06T05:10:39.391Z,100694.53
2023-03-06T05:13:11.245Z,100689.47
2023-03-06T05:15:42.302Z,100695.00
2023-03-06T05:18:11.560Z,100693.53
2023-03-06T05:20:40.666Z,100695.88
2023-03-06T05:23:09.664Z,100698.16
2023-03-06T05:25:41.107Z,100687.59
2023-03-06T05:28:15.540Z,100690.16
2023-03-06T05:30:46.309Z,100695.00
2023-03-06T05:33:18.537Z,100694.38
2023-03-06T05:35:49.816Z,100681.56
2023-03-06T05:38:20.617Z,100684.78
2023-03-06T05:40:50.762Z,100694.13
2023-03-06T05:43:21.838Z,100701.47
2023-03-06T05:45:53.358Z,100696.00
2023-03-06T05:48:22.333Z,100693.22
2023-03-06T05:50:58.902Z,100691.66
2023-03-06T05:53:31.404Z,100700.06
2023-03-06T05:56:01.228Z,100696.88
2023-03-06T05:58:33.801Z,100691.44
2023-03-06T06:01:10.545Z,100691.25
2023-03-06T06:03:43.366Z,100691.53
2023-03-06T06:06:14.787Z,100703.56
2023-03-06T06:08:49.365Z,100706.69
2023-03-06T06:11:28.287Z,100700.25
2023-03-06T06:14:40.785Z,100700.44
2023-03-06T06:17:12.748Z,100700.84
2023-03-06T06:19:42.281Z,100703.84
2023-03-06T06:22:13.887Z,100708.00
2023-03-06T06:24:46.770Z,100708.22
2023-03-06T06:27:15.414Z,100709.53
2023-03-06T06:29:51.851Z,100703.78
2023-03-06T06:32:23.585Z,100701.84
2023-03-06T06:34:53.370Z,100700.09
2023-03-06T06:37:22.350Z,100703.16
2023-03-06T06:39:51.819Z,100695.31
2023-03-06T06:45:21.461Z,100701.88
2023-03-06T06:47:52.075Z,100706.41
2023-03-06T06:50:21.172Z,100711.41
2023-03-06T06:52:51.626Z,100710.63
2023-03-06T06:55:20.589Z,100715.47
2023-03-06T06:57:49.090Z,100718.34
2023-03-06T07:00:21.343Z,100721.97
2023-03-06T07:02:51.496Z,100727.28
2023-03-06T07:05:22.209Z,100724.34
2023-03-06T07:07:54.035Z,100720.13
2023-03-06T07:10:23.063Z,100723.72
2023-03-06T07:15:43.227Z,100715.78
2023-03-06T07:18:12.201Z,100714.97
2023-03-06T07:20:40.681Z,100723.31
2023-03-06T07:23:12.676Z,100719.66
2023-03-06T07:25:41.615Z,100720.16
2023-03-06T07:28:10.420Z,100709.34
2023-03-06T07:30:41.298Z,100722.56
2023-03-06T07:33:16.453Z,100730.00
2023-03-06T07:35:46.211Z,100723.75
2023-03-06T07:38:15.503Z,100713.63
2023-03-06T07:40:44.123Z,100720.88
2023-03-06T07:43:19.106Z,100720.03
2023-03-06T07:45:48.265Z,100714.25
2023-03-06T07:48:18.263Z,100715.00
2023-03-06T07:50:55.521Z,100728.47
2023-03-06T07:53:24.838Z,100716.63
2023-03-06T07:55:53.829Z,100718.06
2023-03-06T07:58:22.638Z,100713.09
2023-03-06T08:00:51.236Z,100720.88
2023-03-06T08:03:21.648Z,100719.34
2023-03-06T08:05:50.381Z,100714.31
2023-03-06T08:08:18.897Z,100717.03
2023-03-06T08:10:50.180Z,100711.16
2023-03-06T08:13:18.783Z,100716.25
2023-03-06T08:15:50.508Z,100715.44
2023-03-06T08:18:21.017Z,100718.22
2023-03-06T08:20:50.724Z,100719.56
2023-03-06T08:23:19.615Z,100714.22
2023-03-06T08:25:49.224Z,100710.84
2023-03-06T08:28:17.762Z,100711.59
2023-03-06T08:30:46.288Z,100714.88
2023-03-06T08:33:14.990Z,100711.53
2023-03-06T08:35:45.005Z,100722.78
2023-03-06T08:38:13.829Z,100715.22
2023-03-06T08:40:42.869Z,100714.72
2023-03-06T08:43:14.188Z,100721.81
2023-03-06T08:45:43.013Z,100714.00
2023-03-06T08:48:11.588Z,100721.47
2023-03-06T08:50:44.296Z,100713.19
2023-03-06T08:53:13.292Z,100718.69
2023-03-06T08:55:42.327Z,100716.38
2023-03-06T08:58:11.068Z,100722.09
2023-03-06T09:00:40.313Z,100718.69
2023-03-06T09:03:11.754Z,100718.22
2023-03-06T09:05:44.793Z,100718.81
2023-03-06T09:08:13.637Z,100712.56
2023-03-06T09:10:46.472Z,100723.28
2023-03-06T09:13:15.339Z,100721.13
2023-03-06T09:15:44.252Z,100719.38
2023-03-06T09:18:12.852Z,100724.28
2023-03-06T09:20:41.424Z,100720.09
2023-03-06T09:23:12.268Z,100713.69
2023-03-06T09:25:40.862Z,100712.63
2023-03-06T09:28:11.892Z,100711.31
2023-03-06T09:30:42.353Z,100710.16
2023-03-06T09:33:11.193Z,100718.00
2023-03-06T09:35:45.786Z,100708.28
2023-03-06T09:38:16.140Z,100708.00
2023-03-06T09:41:00.814Z,100702.88
2023-03-06T09:43:35.488Z,100708.91
2023-03-06T09:46:17.882Z,100709.88
2023-03-06T09:49:01.593Z,100709.81
2023-03-06T09:51:42.751Z,100715.59
2023-03-06T09:54:16.169Z,100711.28
2023-03-06T09:56:52.231Z,100701.84
2023-03-06T09:59:23.972Z,100712.81
2023-03-06T10:02:02.602Z,100722.59
2023-03-06T10:04:39.459Z,100718.28
2023-03-06T10:07:16.860Z,100714.66
2023-03-06T10:09:53.865Z,100709.25
2023-03-06T10:12:28.504Z,100701.28
2023-03-06T10:15:18.164Z,100709.78
2023-03-06T10:17:47.233Z,100711.75
2023-03-06T10:20:22.679Z,100704.44
2023-03-06T10:23:12.054Z,100697.69
2023-03-06T10:25:51.802Z,100691.94
2023-03-06T10:28:25.661Z,100694.31
2023-03-06T10:31:02.002Z,100688.56
2023-03-06T10:33:45.822Z,100689.47
2023-03-06T10:36:19.937Z,100689.66
2023-03-06T10:38:50.444Z,100691.44
2023-03-06T10:41:27.577Z,100689.06
2023-03-06T10:44:26.152Z,100684.53
2023-03-06T10:46:56.876Z,100688.03
2023-03-06T10:49:33.988Z,100681.63
2023-03-06T10:52:06.845Z,100684.38
2023-03-06T10:54:37.831Z,100684.41
2023-03-06T10:57:27.173Z,100673.78
2023-03-06T10:59:58.081Z,100681.19
2023-03-06T11:02:31.841Z,100684.75
2023-03-06T11:05:03.661Z,100665.88
2023-03-06T11:07:34.196Z,100665.13
2023-03-06T11:10:18.054Z,100675.91
2023-03-06T11:12:59.844Z,100675.38
2023-03-06T11:15:29.973Z,100666.47
2023-03-06T11:18:03.795Z,100662.47
2023-03-06T11:20:50.883Z,100663.38
2023-03-06T11:23:30.383Z,100658.22
2023-03-06T11:26:04.948Z,100655.63
2023-03-06T11:28:41.621Z,100650.25
2023-03-06T11:31:17.088Z,100644.00
2023-03-06T11:33:52.705Z,100641.34
2023-03-06T11:36:31.543Z,100637.91
2023-03-06T11:39:00.456Z,100643.91
2023-03-06T11:41:46.024Z,100639.81
2023-03-06T11:44:25.870Z,100629.16
2023-03-06T11:47:08.776Z,100618.03
2023-03-06T11:49:45.614Z,100613.94
2023-03-06T11:52:24.243Z,100624.25
2023-03-06T11:54:57.586Z,100612.91
2023-03-06T11:57:34.499Z,100619.13
2023-03-06T12:00:30.845Z,100611.41
2023-03-06T12:03:30.487Z,100607.16
2023-03-06T12:06:07.377Z,100614.31
2023-03-06T12:08:58.680Z,100606.25
2023-03-06T12:11:36.904Z,100599.16
2023-03-06T12:14:30.620Z,100602.31
2023-03-06T12:17:17.578Z,100605.41
2023-03-06T12:20:21.091Z,100598.56
2023-03-06T12:22:57.839Z,100599.31
2023-03-06T12:25:37.711Z,100584.63
2023-03-06T12:28:32.282Z,100588.19
2023-03-06T12:31:36.569Z,100586.56
2023-03-06T12:34:25.472Z,100587.06
2023-03-06T12:37:12.495Z,100589.59
2023-03-06T12:39:58.045Z,100585.88
2023-03-06T12:42:48.346Z,100578.41
2023-03-06T12:45:33.557Z,100569.63
2023-03-06T12:48:03.571Z,100569.13
2023-03-06T12:50:37.319Z,100566.16
2023-03-06T12:53:15.368Z,100555.00
2023-03-06T12:55:48.043Z,100550.13
2023-03-06T12:58:37.205Z,100549.03
2023-03-06T13:01:15.062Z,100542.72
2023-03-06T13:04:06.228Z,100535.81
2023-03-06T13:07:03.143Z,100537.81
2023-03-06T13:09:37.506Z,100528.69
2023-03-06T13:12:26.863Z,100519.41
2023-03-06T13:15:01.860Z,100514.53
2023-03-06T13:17:37.163Z,100511.81
2023-03-06T13:20:39.726Z,100503.97
2023-03-06T13:23:51.855Z,100503.53
2023-03-06T13:27:00.641Z,100507.75
2023-03-06T13:30:52.633Z,100492.63
2023-03-06T13:34:01.834Z,100489.72
2023-03-06T13:36:32.774Z,100480.59
2023-03-06T13:39:10.216Z,100473.34
2023-03-06T13:42:02.751Z,100473.56
2023-03-06T13:44:53.229Z,100489.94
2023-03-06T13:48:09.733Z,100488.13
2023-03-06T13:50:43.515Z,100483.34
2023-03-06T13:53:54.997Z,100473.47
2023-03-06T13:57:22.736Z,100464.03
2023-03-06T14:00:22.223Z,100467.84
2023-03-06T14:03:27.526Z,100466.09
2023-03-06T14:05:56.235Z,100461.50
2023-03-06T14:08:28.990Z,100459.22
2023-03-06T14:11:04.961Z,100448.41
2023-03-06T14:13:47.218Z,100446.97
2023-03-06T14:16:22.608Z,100439.34
2023-03-06T14:18:54.760Z,100436.38
2023-03-06T14:21:31.557Z,100437.81
2023-03-06T14:24:01.907Z,100430.31
2023-03-06T14:26:33.963Z,100426.34
2023-03-06T14:29:04.938Z,100429.84
2023-03-06T14:31:37.652Z,100429.19
2023-03-06T14:34:08.283Z,100424.84
2023-03-06T14:36:44.678Z,100421.56
2023-03-06T14:39:16.761Z,100423.41
2023-03-06T14:41:45.659Z,100408.91
2023-03-06T14:44:22.633Z,100410.66
2023-03-06T14:46:53.070Z,100401.72
2023-03-06T14:49:23.852Z,100410.13
2023-03-06T14:51:54.959Z,100412.06
2023-03-06T14:54:28.653Z,100411.31
2023-03-06T14:57:03.322Z,100409.84
2023-03-06T14:59:46.166Z,100414.06
2023-03-06T15:02:21.960Z,100406.66
2023-03-06T15:04:55.449Z,100406.47
2023-03-06T15:07:27.935Z,100403.34
2023-03-06T15:09:57.427Z,100407.47
2023-03-06T15:12:46.517Z,100406.06
2023-03-06T15:15:32.828Z,100401.09
2023-03-06T15:18:01.616Z,100408.31
2023-03-06T15:20:53.149Z,100399.63
2023-03-06T15:23:26.557Z,100397.72
2023-03-06T15:25:59.637Z,100391.63
2023-03-06T15:28:35.361Z,100387.09
2023-03-06T15:31:22.275Z,100385.28
2023-03-06T15:34:26.223Z,100382.28
2023-03-06T15:36:57.187Z,100373.47
2023-03-06T15:39:38.844Z,100372.41
2023-03-06T15:42:20.685Z,100373.19
2023-03-06T15:44:53.226Z,100361.56
2023-03-06T15:47:27.773Z,100366.22
2023-03-06T15:49:56.980Z,100354.84
2023-03-06T15:52:25.580Z,100347.41
2023-03-06T15:54:54.310Z,100351.72
2023-03-06T15:57:28.416Z,100340.31
2023-03-06T15:59:58.795Z,100339.50
2023-03-06T16:02:31.166Z,100330.09
2023-03-06T16:05:06.914Z,100329.81
2023-03-06T16:07:38.146Z,100331.03
2023-03-06T16:10:08.018Z,100315.78
2023-03-06T16:12:43.051Z,100320.66
2023-03-06T16:15:24.766Z,100317.03
2023-03-06T16:17:58.851Z,100313.28
2023-03-06T16:20:29.436Z,100306.31
2023-03-06T16:23:00.723Z,100297.63
2023-03-06T16:25:31.077Z,100302.25
2023-03-06T16:28:03.478Z,100299.19
2023-03-06T16:30:38.538Z,100305.16
2023-03-06T16:33:10.771Z,100299.09
2023-03-06T16:35:41.841Z,100288.53
2023-03-06T16:38:11.974Z,100290.09
2023-03-06T16:40:42.638Z,100279.53
2023-03-06T16:43:13.548Z,100279.53
2023-03-06T16:45:43.745Z,100288.63
2023-03-06T16:48:19.048Z,100273.81
2023-03-06T16:50:47.819Z,100257.75
2023-03-06T16:53:16.715Z,100259.19
2023-03-06T16:55:47.058Z,100257.66
2023-03-06T16:58:15.842Z,100259.44
2023-03-06T17:00:44.563Z,100240.38
2023-03-06T17:03:12.975Z,100238.59
2023-03-06T17:05:44.178Z,100246.53
2023-03-06T17:08:16.405Z,100242.38
2023-03-06T17:10:50.124Z,100237.94
2023-03-06T17:13:22.161Z,100236.19
2023-03-06T17:16:48.100Z,100235.25
2023-03-06T17:19:37.733Z,100228.91
2023-03-06T17:22:16.009Z,100215.63
2023-03-06T17:24:44.574Z,100223.78
2023-03-06T17:30:02.552Z,100215.63
2023-03-06T17:32:34.107Z,100210.19
2023-03-06T17:35:03.131Z,100215.44
2023-03-06T17:37:34.087Z,100206.84
2023-03-06T17:40:02.796Z,100213.88
2023-03-06T17:42:33.457Z,100210.63
2023-03-06T17:45:02.217Z,100204.72
2023-03-06T17:47:30.820Z,100198.38
2023-03-06T17:49:59.310Z,100214.25
2023-03-06T17:52:31.402Z,100214.13
2023-03-06T17:55:01.603Z,100202.59
2023-03-06T17:57:43.477Z,100187.31
2023-03-06T18:00:16.933Z,100202.72
2023-03-06T18:02:45.487Z,100212.03
2023-03-06T18:05:14.026Z,100195.84
2023-03-06T18:07:44.901Z,100194.28
2023-03-06T18:10:22.062Z,100203.69
2023-03-06T18:12:50.633Z,100188.97
2023-03-06T18:15:19.757Z,100195.41
2023-03-06T18:17:48.424Z,100184.16
2023-03-06T18:20:17.310Z,100172.75
2023-03-06T18:22:45.684Z,100189.56
2023-03-06T18:25:15.725Z,100183.00
2023-03-06T18:27:44.598Z,100173.44
2023-03-06T18:30:14.611Z,100174.44
2023-03-06T18:32:43.184Z,100170.38
2023-03-06T18:35:12.249Z,100171.69
2023-03-06T18:37:40.769Z,100168.56
2023-03-06T18:40:11.399Z,100152.56
2023-03-06T18:42:41.624Z,100160.53
2023-03-06T18:45:11.865Z,100149.59
2023-03-06T18:47:40.607Z,100154.28
2023-03-06T18:50:16.543Z,100140.25
2023-03-06T18:52:45.763Z,100142.72
2023-03-06T18:55:14.517Z,100145.47
2023-03-06T18:57:44.437Z,100141.16
2023-03-06T19:00:14.529Z,100141.16
2023-03-06T19:02:43.825Z,100134.81
2023-03-06T19:05:12.515Z,100125.34
2023-03-06T19:07:41.613Z,100121.75
2023-03-06T19:10:12.863Z,100128.81
2023-03-06T19:12:41.537Z,100117.38
2023-03-06T19:15:12.075Z,100109.53
2023-03-06T19:17:40.652Z,100107.13
2023-03-06T19:20:11.313Z,100109.72
2023-03-06T19:22:40.117Z,100099.81
2023-03-06T19:25:10.504Z,100097.81
2023-03-06T19:27:39.486Z,100082.28
2023-03-06T19:30:12.704Z,100073.41
2023-03-06T19:32:41.826Z,100079.56
2023-03-06T19:35:11.174Z,100074.56
2023-03-06T19:37:39.994Z,100067.47
2023-03-06T19:40:10.806Z,100062.81
2023-03-06T19:42:47.239Z,100056.34
2023-03-06T19:45:17.338Z,100053.66
2023-03-06T19:47:47.333Z,100053.84
2023-03-06T19:50:15.833Z,100036.03
2023-03-06T19:52:44.711Z,100036.78
2023-03-06T19:55:13.188Z,100040.72
2023-03-06T19:57:41.867Z,100034.81
2023-03-06T20:00:13.115Z,100021.38
2023-03-06T20:02:43.014Z,100026.97
2023-03-06T20:05:14.581Z,100008.88
2023-03-06T20:07:43.102Z,100006.56
2023-03-06T20:10:13.013Z,100004.56
2023-03-06T20:12:41.753Z,99999.75
2023-03-06T20:15:13.840Z,99996.09
2023-03-06T20:17:43.747Z,99986.03
2023-03-06T20:20:14.379Z,99982.56
2023-03-06T20:22:43.097Z,99965.16
2023-03-06T20:25:13.195Z,99965.19
2023-03-06T20:27:41.657Z,99968.00
2023-03-06T20:30:12.918Z,99956.81
2023-03-06T20:32:41.680Z,99950.34
2023-03-06T20:35:12.735Z,99936.25
2023-03-06T20:37:41.424Z,99937.66
2023-03-06T20:40:13.291Z,99948.44
2023-03-06T20:42:41.799Z,99941.56
2023-03-06T20:45:11.613Z,99924.00
2023-03-06T20:47:47.520Z,99924.41
2023-03-06T20:50:36.073Z,99910.66
2023-03-06T20:53:23.216Z,99908.53
2023-03-06T20:55:52.424Z,99906.19
2023-03-06T20:58:23.569Z,99917.81
2023-03-06T21:00:52.120Z,99927.06
2023-03-06T21:03:20.903Z,99929.81
2023-03-06T21:05:50.972Z,99918.38
2023-03-06T21:08:19.561Z,99932.75
2023-03-06T21:10:48.429Z,99928.84
2023-03-06T21:13:17.304Z,99935.31
2023-03-06T21:15:48.923Z,99930.13
2023-03-06T21:18:18.144Z,99939.38
2023-03-06T21:20:46.733Z,99931.94
2023-03-06T21:23:16.768Z,99935.47
2023-03-06T21:25:49.487Z,99933.50
2023-03-06T21:28:19.341Z,99923.50
2023-03-06T21:30:48.380Z,99925.34
2023-03-06T21:33:16.954Z,99926.81
2023-03-06T21:35:47.094Z,99931.38
2023-03-06T21:38:16.953Z,99922.28
2023-03-06T21:40:46.583Z,99917.72
2023-03-06T21:43:15.746Z,99920.09
2023-03-06T21:45:46.150Z,99915.06
2023-03-06T21:48:15.899Z,99898.66
2023-03-06T21:50:44.491Z,99900.84
2023-03-06T21:53:12.921Z,99906.28
2023-03-06T21:55:43.102Z,99900.69
2023-03-06T21:58:11.485Z,99886.91
2023-03-06T22:00:40.710Z,99896.25
2023-03-06T22:03:09.333Z,99897.63
2023-03-06T22:05:37.779Z,99900.22
2023-03-06T22:08:06.431Z,99896.69
2023-03-06T22:10:35.086Z,99894.03
2023-03-06T22:13:05.172Z,99897.47
2023-03-06T22:15:36.288Z,99884.34
2023-03-06T22:18:23.460Z,99882.16
2023-03-06T22:21:12.454Z,99881.31
2023-03-06T22:24:00.836Z,99882.88
2023-03-06T22:26:48.449Z,99883.63
2023-03-06T22:29:37.396Z,99878.25
2023-03-06T22:32:24.699Z,99880.66
2023-03-06T22:35:11.914Z,99880.53
2023-03-06T22:38:02.704Z,99877.19
2023-03-06T22:40:50.082Z,99868.28
2023-03-06T22:43:38.202Z,99861.84
2023-03-06T22:46:27.736Z,99852.16
2023-03-06T22:49:17.839Z,99856.94
2023-03-06T22:52:05.021Z,99853.69
2023-03-06T22:54:52.330Z,99862.47
2023-03-06T22:57:39.351Z,99871.00
2023-03-06T23:00:11.079Z,99884.75
2023-03-06T23:02:59.811Z,99876.16
2023-03-06T23:05:47.128Z,99877.28
2023-03-06T23:08:34.052Z,99878.13
2023-03-06T23:11:02.532Z,99871.34
2023-03-06T23:13:49.821Z,99872.91
2023-03-06T23:16:37.841Z,99871.84
2023-03-06T23:19:26.722Z,99871.69
2023-03-06T23:22:14.422Z,99863.25
2023-03-06T23:25:01.663Z,99851.63
2023-03-06T23:27:48.762Z,99857.81
2023-03-06T23:30:18.075Z,99843.25
2023-03-06T23:32:46.527Z,99839.09
2023-03-06T23:35:16.597Z,99839.78
2023-03-06T23:37:45.071Z,99838.06
2023-03-06T23:40:17.517Z,99844.50
2023-03-06T23:42:47.862Z,99846.13
2023-03-06T23:45:16.782Z,99848.13
2023-03-06T23:47:46.453Z,99847.16
2023-03-06T23:50:16.787Z,99841.00
2023-03-06T23:52:45.713Z,99844.44
2023-03-06T23:55:14.445Z,99850.25
2023-03-06T23:57:43.171Z,99851.69
